createdAt,value
2019-03-09T00:00:27.794Z,19.28
2019-03-09T00:01:27.660Z,19.57
2019-03-09T00:02:27.632Z,19.47
2019-03-09T00:03:27.616Z,19.47
2019-03-09T00:04:27.611Z,19.57
2019-03-09T00:05:27.564Z,19.47
2019-03-09T00:06:27.542Z,19.47
2019-03-09T00:07:27.549Z,19.57
2019-03-09T00:08:27.587Z,19.46
2019-03-09T00:09:27.487Z,19.47
2019-03-09T00:10:27.457Z,19.47
2019-03-09T00:11:27.446Z,19.46
2019-03-09T00:12:27.418Z,19.47
2019-03-09T00:13:27.403Z,19.27
2019-03-09T00:14:27.372Z,19.47
2019-03-09T00:15:27.352Z,19.47
2019-03-09T00:16:27.339Z,19.28
2019-03-09T00:17:27.333Z,19.28
2019-03-09T00:18:27.288Z,19.47
2019-03-09T00:19:27.260Z,19.38
2019-03-09T00:20:27.248Z,19.47
2019-03-09T00:21:27.232Z,19.38
2019-03-09T00:22:27.204Z,19.18
2019-03-09T00:23:27.188Z,19.57
2019-03-09T00:24:27.160Z,19.47
2019-03-09T00:25:27.790Z,19.38
2019-03-09T00:26:27.122Z,19.57
2019-03-09T00:27:32.421Z,19.28
2019-03-09T00:28:27.075Z,19.17
2019-03-09T00:29:27.083Z,19.18
2019-03-09T00:30:27.071Z,19.18
2019-03-09T00:31:27.923Z,19.18
2019-03-09T00:32:27.008Z,19.38
2019-03-09T00:33:26.962Z,19.18
2019-03-09T00:34:27.129Z,19.18
2019-03-09T00:35:26.933Z,19.38
2019-03-09T00:36:28.134Z,19.57
2019-03-09T00:37:26.874Z,19.47
2019-03-09T00:38:26.854Z,19.47
2019-03-09T00:39:26.857Z,19.47
2019-03-09T00:40:26.832Z,19.38
2019-03-09T00:41:26.805Z,19.66
2019-03-09T00:42:27.004Z,19.85
2019-03-09T00:43:26.763Z,19.85
2019-03-09T00:44:26.746Z,19.96
2019-03-09T00:45:26.723Z,19.86
2019-03-09T00:46:26.689Z,19.76
2019-03-09T00:47:26.664Z,19.86
2019-03-09T00:48:26.654Z,19.96
2019-03-09T00:49:26.638Z,19.67
2019-03-09T00:50:26.606Z,19.86
2019-03-09T00:51:26.581Z,19.86
2019-03-09T00:52:26.561Z,19.66
2019-03-09T00:53:26.307Z,20.06
2019-03-09T00:54:26.529Z,19.86
2019-03-09T00:55:26.504Z,19.75
2019-03-09T00:56:26.474Z,19.86
2019-03-09T00:57:26.448Z,19.76
2019-03-09T00:58:26.437Z,19.85
2019-03-09T00:59:26.430Z,20.34
2019-03-09T01:00:26.384Z,20.06
2019-03-09T01:01:26.366Z,20.15
2019-03-09T01:02:26.351Z,20.06
2019-03-09T01:03:26.328Z,20.04
2019-03-09T01:04:26.302Z,20.06
2019-03-09T01:05:26.276Z,19.76
2019-03-09T01:06:26.265Z,19.75
2019-03-09T01:07:26.242Z,19.86
2019-03-09T01:08:25.986Z,20.06
2019-03-09T01:09:26.191Z,19.75
2019-03-09T01:10:26.168Z,19.86
2019-03-09T01:11:26.159Z,19.76
2019-03-09T01:12:26.129Z,20.25
2019-03-09T01:13:26.113Z,20.06
2019-03-09T01:14:26.082Z,20.06
2019-03-09T01:15:26.072Z,20.15
2019-03-09T01:16:26.047Z,20.14
2019-03-09T01:17:26.028Z,20.06
2019-03-09T01:18:25.996Z,20.15
2019-03-09T01:19:25.976Z,19.96
2019-03-09T01:20:25.963Z,20.14
2019-03-09T01:21:25.942Z,20.15
2019-03-09T01:22:25.916Z,20.25
2019-03-09T01:23:25.888Z,20.06
2019-03-09T01:24:25.874Z,20.06
2019-03-09T01:25:25.857Z,20.34
2019-03-09T01:26:25.856Z,20.34
2019-03-09T01:27:25.805Z,20.43
2019-03-09T01:28:25.790Z,20.43
2019-03-09T01:29:25.760Z,20.44
2019-03-09T01:30:25.746Z,20.54
2019-03-09T01:31:25.736Z,20.62
2019-03-09T01:32:25.703Z,20.34
2019-03-09T01:33:25.699Z,20.53
2019-03-09T01:34:25.654Z,20.34
2019-03-09T01:35:25.628Z,20.62
2019-03-09T01:36:25.635Z,20.24
2019-03-09T01:37:25.599Z,20.34
2019-03-09T01:38:25.576Z,20.24
2019-03-09T01:39:25.550Z,20.44
2019-03-09T01:40:25.532Z,20.15
2019-03-09T01:41:25.513Z,20.24
2019-03-09T01:42:25.536Z,20.43
2019-03-09T01:43:25.458Z,20.34
2019-03-09T01:44:25.447Z,20.43
2019-03-09T01:45:25.417Z,20.43
2019-03-09T01:46:25.406Z,20.43
2019-03-09T01:47:25.375Z,20.43
2019-03-09T01:48:25.360Z,20.72
2019-03-09T01:49:25.346Z,20.53
2019-03-09T01:50:25.325Z,20.53
2019-03-09T01:51:25.304Z,20.62
2019-03-09T01:52:25.277Z,20.53
2019-03-09T01:53:25.244Z,20.53
2019-03-09T01:54:25.228Z,20.53
2019-03-09T01:55:25.214Z,20.62
2019-03-09T01:56:25.203Z,20.34
2019-03-09T01:57:25.166Z,20.92
2019-03-09T01:58:25.145Z,20.72
2019-03-09T01:59:25.159Z,21.01
2019-03-09T02:00:25.100Z,20.92
2019-03-09T02:01:25.084Z,20.72
2019-03-09T02:02:25.050Z,20.92
2019-03-09T02:03:25.052Z,20.82
2019-03-09T02:04:25.016Z,20.92
2019-03-09T02:05:25.000Z,20.92
2019-03-09T02:06:24.967Z,20.72
2019-03-09T02:07:24.954Z,20.72
2019-03-09T02:08:24.931Z,20.72
2019-03-09T02:09:24.917Z,20.82
2019-03-09T02:10:24.884Z,20.72
2019-03-09T02:11:24.859Z,20.72
2019-03-09T02:12:24.843Z,20.92
2019-03-09T02:13:24.827Z,21.2
2019-03-09T02:14:24.806Z,21.2
2019-03-09T02:15:24.776Z,20.92
2019-03-09T02:16:24.758Z,21.11
2019-03-09T02:17:24.731Z,21.01
2019-03-09T02:18:24.721Z,20.82
2019-03-09T02:19:24.692Z,21.11
2019-03-09T02:20:24.671Z,20.92
2019-03-09T02:21:24.648Z,20.82
2019-03-09T02:22:24.636Z,21.01
2019-03-09T02:23:24.618Z,21.01
2019-03-09T02:24:24.588Z,20.92
2019-03-09T02:25:24.563Z,20.92
2019-03-09T02:26:24.546Z,21.11
2019-03-09T02:27:24.530Z,21.01
2019-03-09T02:28:24.549Z,20.92
2019-03-09T02:29:24.481Z,20.72
2019-03-09T02:30:24.464Z,20.82
2019-03-09T02:31:24.444Z,21.2
2019-03-09T02:32:24.414Z,21.2
2019-03-09T02:33:24.403Z,21.2
2019-03-09T02:34:24.369Z,21.2
2019-03-09T02:35:24.371Z,21.2
2019-03-09T02:36:24.338Z,21.2
2019-03-09T02:37:24.363Z,21.11
2019-03-09T02:38:24.313Z,21.2
2019-03-09T02:39:24.268Z,21.2
2019-03-09T02:40:25.544Z,21.2
2019-03-09T02:41:24.231Z,21.4
2019-03-09T02:42:24.208Z,21.01
2019-03-09T02:43:24.191Z,21.01
2019-03-09T02:44:24.193Z,20.92
2019-03-09T02:45:24.161Z,21.01
2019-03-09T02:46:24.134Z,21.3
2019-03-09T02:47:24.090Z,21.01
2019-03-09T02:48:24.077Z,21.2
2019-03-09T02:49:24.047Z,21.2
2019-03-09T02:50:24.054Z,21.2
2019-03-09T02:51:24.004Z,21.59
2019-03-09T02:52:23.984Z,21.3
2019-03-09T02:53:23.966Z,21.5
2019-03-09T02:54:23.949Z,21.5
2019-03-09T02:55:23.939Z,21.5
2019-03-09T02:56:23.907Z,21.5
2019-03-09T02:57:23.876Z,21.79
2019-03-09T02:58:23.857Z,21.5
2019-03-09T02:59:23.846Z,21.59
2019-03-09T03:00:23.819Z,21.79
2019-03-09T03:01:23.794Z,21.69
2019-03-09T03:02:23.784Z,21.69
2019-03-09T03:03:23.758Z,21.69
2019-03-09T03:04:23.725Z,21.79
2019-03-09T03:05:23.728Z,21.69
2019-03-09T03:06:23.689Z,21.88
2019-03-09T03:07:23.675Z,21.59
2019-03-09T03:08:23.645Z,21.5
2019-03-09T03:09:23.651Z,21.5
2019-03-09T03:10:23.748Z,21.69
2019-03-09T03:11:23.630Z,21.5
2019-03-09T03:12:23.561Z,21.69
2019-03-09T03:13:23.540Z,21.69
2019-03-09T03:14:23.512Z,21.5
2019-03-09T03:15:23.502Z,21.5
2019-03-09T03:16:23.477Z,21.5
2019-03-09T03:17:23.459Z,21.79
2019-03-09T03:18:23.442Z,21.88
2019-03-09T03:19:23.409Z,21.98
2019-03-09T03:20:23.392Z,21.98
2019-03-09T03:21:23.362Z,22.37
2019-03-09T03:22:23.348Z,22.08
2019-03-09T03:23:23.339Z,22.17
2019-03-09T03:24:23.298Z,22.17
2019-03-09T03:25:23.284Z,22.27
2019-03-09T03:26:23.261Z,22.17
2019-03-09T03:27:23.241Z,22.08
2019-03-09T03:28:23.218Z,22.08
2019-03-09T03:29:23.204Z,22.08
2019-03-09T03:30:23.240Z,22.37
2019-03-09T03:31:23.162Z,22.27
2019-03-09T03:32:23.130Z,22.37
2019-03-09T03:33:23.184Z,22.37
2019-03-09T03:34:23.099Z,22.27
2019-03-09T03:35:23.067Z,22.17
2019-03-09T03:36:23.045Z,22.17
2019-03-09T03:37:23.024Z,22.37
2019-03-09T03:38:23.007Z,22.37
2019-03-09T03:39:22.782Z,21.98
2019-03-09T03:40:22.958Z,22.08
2019-03-09T03:41:22.940Z,22.37
2019-03-09T03:42:22.927Z,22.27
2019-03-09T03:43:22.904Z,22.27
2019-03-09T03:44:22.873Z,22.37
2019-03-09T03:45:22.856Z,22.37
2019-03-09T03:46:22.834Z,22.37
2019-03-09T03:47:22.799Z,22.17
2019-03-09T03:48:22.791Z,22.17
2019-03-09T03:49:22.775Z,22.17
2019-03-09T03:50:22.748Z,22.56
2019-03-09T03:51:22.711Z,22.85
2019-03-09T03:52:22.728Z,22.56
2019-03-09T03:53:22.682Z,22.47
2019-03-09T03:54:22.668Z,22.47
2019-03-09T03:55:22.630Z,22.66
2019-03-09T03:56:22.622Z,22.66
2019-03-09T03:57:22.588Z,22.66
2019-03-09T03:58:22.580Z,22.75
2019-03-09T03:59:22.570Z,22.66
2019-03-09T04:00:22.547Z,22.75
2019-03-09T04:01:22.519Z,22.75
2019-03-09T04:02:22.485Z,22.66
2019-03-09T04:03:22.468Z,22.56
2019-03-09T04:04:22.439Z,22.75
2019-03-09T04:05:22.471Z,22.56
2019-03-09T04:06:22.407Z,22.56
2019-03-09T04:07:22.390Z,22.56
2019-03-09T04:08:22.376Z,22.47
2019-03-09T04:09:22.338Z,22.56
2019-03-09T04:10:22.317Z,22.75
2019-03-09T04:11:22.292Z,22.85
2019-03-09T04:12:22.273Z,22.75
2019-03-09T04:13:22.253Z,22.47
2019-03-09T04:14:22.220Z,22.56
2019-03-09T04:15:22.202Z,23.05
2019-03-09T04:16:22.180Z,22.75
2019-03-09T04:17:22.165Z,22.95
2019-03-09T04:18:22.166Z,22.66
2019-03-09T04:19:22.185Z,23.05
2019-03-09T04:20:22.151Z,22.85
2019-03-09T04:21:22.079Z,22.85
2019-03-09T04:22:21.816Z,22.95
2019-03-09T04:23:22.031Z,23.05
2019-03-09T04:24:22.020Z,23.24
2019-03-09T04:25:21.986Z,23.24
2019-03-09T04:26:21.975Z,23.24
2019-03-09T04:27:21.943Z,23.24
2019-03-09T04:28:21.961Z,23.24
2019-03-09T04:29:21.898Z,23.14
2019-03-09T04:30:21.885Z,23.33
2019-03-09T04:31:21.872Z,23.43
2019-03-09T04:32:21.837Z,23.24
2019-03-09T04:33:21.815Z,23.24
2019-03-09T04:34:21.799Z,23.24
2019-03-09T04:35:21.777Z,23.24
2019-03-09T04:36:21.748Z,23.24
2019-03-09T04:37:21.491Z,23.43
2019-03-09T04:38:21.700Z,23.24
2019-03-09T04:39:21.691Z,23.24
2019-03-09T04:40:21.676Z,23.43
2019-03-09T04:41:21.669Z,23.33
2019-03-09T04:42:21.617Z,23.33
2019-03-09T04:43:21.605Z,22.95
2019-03-09T04:44:21.579Z,23.53
2019-03-09T04:45:21.567Z,23.43
2019-03-09T04:46:21.529Z,23.05
2019-03-09T04:47:21.508Z,22.85
2019-03-09T04:48:21.494Z,23.05
2019-03-09T04:49:21.483Z,23.05
2019-03-09T04:50:21.447Z,23.33
2019-03-09T04:51:21.422Z,23.14
2019-03-09T04:52:21.407Z,23.14
2019-03-09T04:53:21.403Z,23.33
2019-03-09T04:54:21.367Z,23.14
2019-03-09T04:55:21.345Z,23.14
2019-03-09T04:56:21.319Z,23.24
2019-03-09T04:57:21.307Z,23.14
2019-03-09T04:58:21.271Z,23.33
2019-03-09T04:59:21.260Z,23.24
2019-03-09T05:00:21.234Z,23.33
2019-03-09T05:01:21.218Z,23.24
2019-03-09T05:02:21.186Z,23.33
2019-03-09T05:03:21.164Z,23.43
2019-03-09T05:04:21.157Z,23.43
2019-03-09T05:05:21.131Z,23.43
2019-03-09T05:06:21.103Z,23.63
2019-03-09T05:07:21.080Z,23.63
2019-03-09T05:08:21.069Z,23.63
2019-03-09T05:09:21.046Z,23.92
2019-03-09T05:10:21.025Z,23.63
2019-03-09T05:11:20.992Z,23.92
2019-03-09T05:12:20.974Z,23.72
2019-03-09T05:13:20.950Z,23.72
2019-03-09T05:14:20.942Z,23.82
2019-03-09T05:15:20.904Z,23.72
2019-03-09T05:16:20.891Z,23.72
2019-03-09T05:17:20.863Z,23.72
2019-03-09T05:18:20.854Z,23.63
2019-03-09T05:19:20.833Z,23.72
2019-03-09T05:20:20.805Z,23.53
2019-03-09T05:21:20.779Z,23.72
2019-03-09T05:22:20.765Z,23.72
2019-03-09T05:23:20.763Z,23.63
2019-03-09T05:24:20.716Z,23.63
2019-03-09T05:25:20.694Z,23.43
2019-03-09T05:26:20.429Z,23.53
2019-03-09T05:27:20.683Z,23.53
2019-03-09T05:28:20.630Z,23.43
2019-03-09T05:29:20.616Z,23.33
2019-03-09T05:30:20.588Z,23.33
2019-03-09T05:31:20.584Z,23.82
2019-03-09T05:32:20.548Z,23.43
2019-03-09T05:33:20.534Z,23.53
2019-03-09T05:34:20.545Z,23.63
2019-03-09T05:35:20.495Z,23.43
2019-03-09T05:36:20.462Z,23.53
2019-03-09T05:37:20.443Z,23.53
2019-03-09T05:38:20.415Z,23.63
2019-03-09T05:39:20.395Z,23.63
2019-03-09T05:40:20.376Z,23.43
2019-03-09T05:41:20.363Z,23.33
2019-03-09T05:42:20.342Z,23.63
2019-03-09T05:43:20.326Z,23.63
2019-03-09T05:44:20.288Z,23.43
2019-03-09T05:45:20.266Z,23.33
2019-03-09T05:46:20.455Z,23.43
2019-03-09T05:47:20.219Z,23.33
2019-03-09T05:48:20.201Z,23.43
2019-03-09T05:49:20.177Z,23.43
2019-03-09T05:50:20.215Z,23.33
2019-03-09T05:51:20.146Z,23.33
2019-03-09T05:52:20.136Z,23.43
2019-03-09T05:53:20.094Z,23.43
2019-03-09T05:54:20.082Z,23.33
2019-03-09T05:55:20.057Z,23.43
2019-03-09T05:56:20.043Z,23.33
2019-03-09T05:57:20.001Z,23.43
2019-03-09T05:58:19.985Z,24.11
2019-03-09T05:59:19.973Z,23.33
2019-03-09T06:00:19.945Z,23.33
2019-03-09T06:01:19.929Z,23.43
2019-03-09T06:02:19.897Z,23.43
2019-03-09T06:03:19.885Z,23.82
2019-03-09T06:04:19.860Z,23.64
2019-03-09T06:05:19.853Z,23.82
2019-03-09T06:06:19.814Z,23.83
2019-03-09T06:07:19.799Z,23.82
2019-03-09T06:08:19.773Z,23.83
2019-03-09T06:09:19.760Z,23.82
2019-03-09T06:10:19.729Z,23.82
2019-03-09T06:11:19.705Z,23.82
2019-03-09T06:12:19.689Z,23.72
2019-03-09T06:13:19.672Z,23.44
2019-03-09T06:14:19.650Z,23.53
2019-03-09T06:15:19.618Z,23.92
2019-03-09T06:16:19.606Z,23.43
2019-03-09T06:17:19.573Z,23.82
2019-03-09T06:18:19.565Z,23.72
2019-03-09T06:19:19.532Z,23.82
2019-03-09T06:20:19.608Z,23.72
2019-03-09T06:21:19.248Z,23.82
2019-03-09T06:22:19.479Z,23.82
2019-03-09T06:23:19.460Z,23.82
2019-03-09T06:24:19.433Z,23.64
2019-03-09T06:25:19.411Z,23.72
2019-03-09T06:26:19.395Z,23.74
2019-03-09T06:27:19.376Z,23.83
2019-03-09T06:28:19.344Z,23.83
2019-03-09T06:29:19.322Z,23.92
2019-03-09T06:30:19.296Z,23.83
2019-03-09T06:31:19.300Z,23.83
2019-03-09T06:32:19.257Z,23.74
2019-03-09T06:33:19.244Z,23.74
2019-03-09T06:34:19.211Z,23.74
2019-03-09T06:35:19.200Z,23.83
2019-03-09T06:36:19.175Z,23.83
2019-03-09T06:37:19.160Z,23.93
2019-03-09T06:38:19.135Z,24.03
2019-03-09T06:39:19.113Z,24.22
2019-03-09T06:40:19.095Z,24.03
2019-03-09T06:41:19.073Z,23.83
2019-03-09T06:42:19.048Z,24.22
2019-03-09T06:43:18.791Z,24.12
2019-03-09T06:44:19.002Z,24.12
2019-03-09T06:45:18.981Z,24.22
2019-03-09T06:46:18.959Z,24.12
2019-03-09T06:47:18.970Z,24.11
2019-03-09T06:48:18.921Z,24.12
2019-03-09T06:49:18.912Z,24.12
2019-03-09T06:50:18.865Z,24.12
2019-03-09T06:51:18.858Z,24.12
2019-03-09T06:52:18.842Z,24.03
2019-03-09T06:53:18.817Z,24.12
2019-03-09T06:54:18.800Z,24.12
2019-03-09T06:55:18.760Z,24.22
2019-03-09T06:56:18.744Z,24.21
2019-03-09T06:57:18.732Z,24.22
2019-03-09T06:58:18.699Z,24.12
2019-03-09T06:59:18.674Z,24.12
2019-03-09T07:00:18.428Z,24.12
2019-03-09T07:01:18.645Z,24.12
2019-03-09T07:02:18.620Z,24.12
2019-03-09T07:03:18.594Z,24.03
2019-03-09T07:04:18.574Z,24.03
2019-03-09T07:05:18.547Z,24.32
2019-03-09T07:06:18.539Z,23.93
2019-03-09T07:07:18.505Z,23.93
2019-03-09T07:08:18.490Z,23.93
2019-03-09T07:09:18.461Z,24.22
2019-03-09T07:10:18.457Z,24.22
2019-03-09T07:11:18.432Z,24.03
2019-03-09T07:12:18.429Z,24.12
2019-03-09T07:13:18.379Z,23.93
2019-03-09T07:14:18.360Z,24.03
2019-03-09T07:15:18.348Z,23.93
2019-03-09T07:16:18.329Z,23.93
2019-03-09T07:17:18.290Z,24.03
2019-03-09T07:18:18.279Z,24.03
2019-03-09T07:19:18.261Z,24.03
2019-03-09T07:20:18.237Z,24.03
2019-03-09T07:21:18.217Z,24.12
2019-03-09T07:22:18.185Z,23.93
2019-03-09T07:23:18.174Z,24.22
2019-03-09T07:24:18.147Z,24.12
2019-03-09T07:25:18.131Z,24.32
2019-03-09T07:26:18.127Z,24.03
2019-03-09T07:27:18.081Z,24.22
2019-03-09T07:28:18.072Z,24.22
2019-03-09T07:29:18.043Z,24.32
2019-03-09T07:30:18.017Z,24.22
2019-03-09T07:31:17.989Z,24.32
2019-03-09T07:32:17.974Z,24.03
2019-03-09T07:33:17.722Z,24.32
2019-03-09T07:34:17.936Z,24.32
2019-03-09T07:35:17.903Z,24.41
2019-03-09T07:36:17.888Z,24.3
2019-03-09T07:37:17.861Z,24.11
2019-03-09T07:38:17.853Z,24.32
2019-03-09T07:39:17.816Z,24.12
2019-03-09T07:40:17.803Z,24.22
2019-03-09T07:41:17.776Z,24.12
2019-03-09T07:42:17.764Z,24.21
2019-03-09T07:43:17.743Z,24.32
2019-03-09T07:44:17.713Z,24.22
2019-03-09T07:45:17.693Z,24.32
2019-03-09T07:46:17.681Z,24.22
2019-03-09T07:47:17.661Z,24.22
2019-03-09T07:48:17.645Z,24.12
2019-03-09T07:49:17.606Z,24.12
2019-03-09T07:50:17.580Z,24.11
2019-03-09T07:51:17.573Z,24.32
2019-03-09T07:52:17.545Z,24.22
2019-03-09T07:53:17.530Z,24.22
2019-03-09T07:54:17.502Z,24.32
2019-03-09T07:55:17.487Z,24.32
2019-03-09T07:56:17.460Z,24.32
2019-03-09T07:57:17.443Z,24.32
2019-03-09T07:58:17.415Z,24.3
2019-03-09T07:59:17.391Z,24.22
2019-03-09T08:00:17.378Z,24.22
2019-03-09T08:01:17.357Z,24.32
2019-03-09T08:02:17.332Z,24.61
2019-03-09T08:03:17.305Z,24.61
2019-03-09T08:04:17.293Z,24.32
2019-03-09T08:05:17.309Z,24.32
2019-03-09T08:06:17.255Z,24.12
2019-03-09T08:07:17.414Z,24.51
2019-03-09T08:08:17.203Z,24.32
2019-03-09T08:09:17.177Z,24.61
2019-03-09T08:10:17.166Z,24.61
2019-03-09T08:11:17.133Z,24.41
2019-03-09T08:12:17.116Z,24.22
2019-03-09T08:13:17.092Z,24.22
2019-03-09T08:14:17.087Z,24.22
2019-03-09T08:15:17.059Z,24.32
2019-03-09T08:16:17.031Z,24.32
2019-03-09T08:17:17.006Z,24.22
2019-03-09T08:18:16.991Z,24.32
2019-03-09T08:19:16.995Z,24.32
2019-03-09T08:20:16.960Z,24.32
2019-03-09T08:21:16.937Z,24.32
2019-03-09T08:22:16.908Z,24.32
2019-03-09T08:23:16.937Z,24.32
2019-03-09T08:24:16.860Z,24.41
2019-03-09T08:25:16.833Z,24.32
2019-03-09T08:26:16.834Z,24.32
2019-03-09T08:27:16.812Z,24.51
2019-03-09T08:28:18.948Z,24.32
2019-03-09T08:29:16.767Z,24.51
2019-03-09T08:30:16.745Z,24.51
2019-03-09T08:31:16.736Z,24.32
2019-03-09T08:32:16.708Z,24.32
2019-03-09T08:33:16.445Z,24.32
2019-03-09T08:34:16.651Z,24.32
2019-03-09T08:35:16.647Z,24.51
2019-03-09T08:36:16.630Z,24.32
2019-03-09T08:37:16.578Z,24.32
2019-03-09T08:38:16.558Z,24.22
2019-03-09T08:39:16.557Z,24.32
2019-03-09T08:40:16.527Z,24.71
2019-03-09T08:41:16.538Z,24.51
2019-03-09T08:42:16.475Z,24.51
2019-03-09T08:43:16.464Z,24.22
2019-03-09T08:44:16.447Z,24.32
2019-03-09T08:45:16.435Z,24.32
2019-03-09T08:46:16.429Z,24.32
2019-03-09T08:47:16.133Z,24.32
2019-03-09T08:48:16.350Z,24.32
2019-03-09T08:49:16.348Z,24.32
2019-03-09T08:50:16.310Z,24.32
2019-03-09T08:51:16.319Z,24.32
2019-03-09T08:52:16.290Z,24.32
2019-03-09T08:53:16.280Z,24.51
2019-03-09T08:54:16.261Z,24.32
2019-03-09T08:55:17.953Z,24.32
2019-03-09T08:56:16.235Z,24.41
2019-03-09T08:57:15.938Z,24.32
2019-03-09T08:58:16.160Z,24.51
2019-03-09T08:59:16.182Z,24.32
2019-03-09T09:00:16.133Z,24.22
2019-03-09T09:01:16.141Z,24.32
2019-03-09T09:02:16.095Z,24.22
2019-03-09T09:03:16.038Z,24.32
2019-03-09T09:04:16.010Z,24.41
2019-03-09T09:05:15.982Z,24.32
2019-03-09T09:06:15.982Z,24.32
2019-03-09T09:07:15.947Z,24.41
2019-03-09T09:08:15.927Z,24.32
2019-03-09T09:09:15.671Z,24.32
2019-03-09T09:10:15.656Z,24.41
2019-03-09T09:11:15.871Z,24.32
2019-03-09T09:12:15.834Z,24.41
2019-03-09T09:13:15.822Z,24.22
2019-03-09T09:14:15.790Z,24.22
2019-03-09T09:15:17.477Z,24.32
2019-03-09T09:16:15.755Z,24.22
2019-03-09T09:17:15.762Z,24.22
2019-03-09T09:18:15.733Z,24.32
2019-03-09T09:19:15.681Z,24.32
2019-03-09T09:20:15.669Z,24.41
2019-03-09T09:21:15.648Z,24.32
2019-03-09T09:22:15.625Z,24.51
2019-03-09T09:23:15.595Z,24.41
2019-03-09T09:24:15.594Z,24.32
2019-03-09T09:25:15.568Z,24.41
2019-03-09T09:26:15.542Z,24.51
2019-03-09T09:27:15.508Z,24.32
2019-03-09T09:28:15.495Z,24.41
2019-03-09T09:29:15.480Z,24.32
2019-03-09T09:30:15.501Z,24.22
2019-03-09T09:31:15.866Z,24.32
2019-03-09T09:32:15.410Z,24.32
2019-03-09T09:33:15.383Z,24.41
2019-03-09T09:34:15.397Z,24.22
2019-03-09T09:35:15.352Z,24.61
2019-03-09T09:36:15.322Z,24.61
2019-03-09T09:37:15.295Z,23.93
2019-03-09T09:38:15.281Z,24.61
2019-03-09T09:39:15.297Z,24.32
2019-03-09T09:40:15.239Z,24.32
2019-03-09T09:41:15.230Z,24.12
2019-03-09T09:42:15.188Z,24.12
2019-03-09T09:43:15.178Z,24.32
2019-03-09T09:44:15.152Z,24.22
2019-03-09T09:45:15.139Z,24.32
2019-03-09T09:46:15.111Z,24.51
2019-03-09T09:47:15.095Z,24.12
2019-03-09T09:48:15.068Z,24.12
2019-03-09T09:49:15.063Z,24.12
2019-03-09T09:50:15.020Z,24.12
2019-03-09T09:51:14.998Z,24.22
2019-03-09T09:52:14.984Z,24.12
2019-03-09T09:53:15.020Z,24.12
2019-03-09T09:54:14.937Z,24.12
2019-03-09T09:55:14.916Z,24.32
2019-03-09T09:56:14.914Z,24.32
2019-03-09T09:57:14.884Z,24.41
2019-03-09T09:58:14.859Z,24.12
2019-03-09T09:59:16.909Z,24.32
2019-03-09T10:00:14.814Z,24.32
2019-03-09T10:01:14.785Z,24.12
2019-03-09T10:02:14.773Z,24.22
2019-03-09T10:03:14.746Z,24.12
2019-03-09T10:04:14.725Z,24.03
2019-03-09T10:05:14.713Z,24.12
2019-03-09T10:06:14.690Z,24.12
2019-03-09T10:07:14.667Z,24.12
2019-03-09T10:08:14.643Z,24.03
2019-03-09T10:09:14.614Z,23.94
2019-03-09T10:10:14.599Z,24.22
2019-03-09T10:11:14.591Z,24.04
2019-03-09T10:12:14.555Z,24.22
2019-03-09T10:13:14.291Z,23.93
2019-03-09T10:14:14.507Z,24.12
2019-03-09T10:15:14.512Z,24.03
2019-03-09T10:16:14.481Z,24.03
2019-03-09T10:17:14.468Z,24.12
2019-03-09T10:18:14.429Z,24.12
2019-03-09T10:19:14.419Z,24.12
2019-03-09T10:20:14.392Z,24.03
2019-03-09T10:21:14.378Z,24.23
2019-03-09T10:22:14.337Z,24.22
2019-03-09T10:23:14.316Z,24.12
2019-03-09T10:24:14.311Z,24.23
2019-03-09T10:25:14.285Z,24.32
2019-03-09T10:26:14.257Z,24.13
2019-03-09T10:27:14.235Z,24.12
2019-03-09T10:28:14.242Z,24.23
2019-03-09T10:29:14.204Z,24.13
2019-03-09T10:30:14.180Z,24.33
2019-03-09T10:31:14.147Z,24.04
2019-03-09T10:32:14.149Z,24.12
2019-03-09T10:33:14.103Z,24.12
2019-03-09T10:34:14.095Z,24.13
2019-03-09T10:35:14.062Z,24.22
2019-03-09T10:36:14.046Z,24.23
2019-03-09T10:37:14.018Z,24.04
2019-03-09T10:38:14.010Z,23.93
2019-03-09T10:39:14.033Z,23.83
2019-03-09T10:40:13.961Z,23.93
2019-03-09T10:41:13.937Z,23.83
2019-03-09T10:42:13.922Z,23.85
2019-03-09T10:43:13.903Z,23.83
2019-03-09T10:44:13.877Z,23.93
2019-03-09T10:45:13.876Z,23.83
2019-03-09T10:46:13.830Z,23.85
2019-03-09T10:47:13.888Z,23.64
2019-03-09T10:48:13.864Z,23.93
2019-03-09T10:49:13.775Z,23.85
2019-03-09T10:50:13.745Z,23.36
2019-03-09T10:51:13.733Z,23.36
2019-03-09T10:52:13.709Z,23.46
2019-03-09T10:53:13.695Z,23.46
2019-03-09T10:54:13.655Z,23.46
2019-03-09T10:55:13.643Z,23.64
2019-03-09T10:56:13.378Z,23.54
2019-03-09T10:57:14.111Z,23.44
2019-03-09T10:58:13.579Z,23.35
2019-03-09T10:59:13.555Z,23.46
2019-03-09T11:00:13.539Z,23.64
2019-03-09T11:01:13.520Z,23.65
2019-03-09T11:02:13.500Z,23.75
2019-03-09T11:03:13.468Z,23.64
2019-03-09T11:04:13.453Z,23.44
2019-03-09T11:05:13.425Z,23.54
2019-03-09T11:06:13.414Z,23.36
2019-03-09T11:07:13.381Z,23.44
2019-03-09T11:08:13.372Z,23.55
2019-03-09T11:09:13.340Z,23.46
2019-03-09T11:10:13.338Z,23.46
2019-03-09T11:11:13.308Z,23.55
2019-03-09T11:12:13.280Z,23.55
2019-03-09T11:13:13.255Z,23.75
2019-03-09T11:14:13.240Z,23.65
2019-03-09T11:15:13.227Z,23.75
2019-03-09T11:16:13.206Z,23.65
2019-03-09T11:17:13.171Z,23.65
2019-03-09T11:18:13.178Z,23.55
2019-03-09T11:19:13.152Z,23.55
2019-03-09T11:20:13.109Z,23.75
2019-03-09T11:21:13.095Z,23.75
2019-03-09T11:22:13.064Z,23.85
2019-03-09T11:23:13.053Z,23.65
2019-03-09T11:24:13.028Z,23.75
2019-03-09T11:25:13.018Z,23.94
2019-03-09T11:26:12.989Z,23.65
2019-03-09T11:27:12.959Z,23.46
2019-03-09T11:28:12.943Z,23.55
2019-03-09T11:29:12.927Z,23.65
2019-03-09T11:30:12.900Z,23.46
2019-03-09T11:31:12.888Z,23.36
2019-03-09T11:32:12.864Z,23.26
2019-03-09T11:33:12.841Z,23.26
2019-03-09T11:34:12.823Z,23.26
2019-03-09T11:35:12.790Z,23.36
2019-03-09T11:36:12.834Z,23.36
2019-03-09T11:37:12.750Z,23.16
2019-03-09T11:38:12.738Z,23.55
2019-03-09T11:39:12.703Z,23.46
2019-03-09T11:40:12.687Z,23.26
2019-03-09T11:41:21.186Z,23.16
2019-03-09T11:42:12.653Z,23.26
2019-03-09T11:43:12.646Z,23.26
2019-03-09T11:44:12.601Z,23.26
2019-03-09T11:45:12.589Z,23.36
2019-03-09T11:46:12.575Z,22.88
2019-03-09T11:47:12.536Z,22.97
2019-03-09T11:48:12.521Z,22.88
2019-03-09T11:49:12.509Z,22.97
2019-03-09T11:50:12.483Z,23.55
2019-03-09T11:51:12.452Z,23.55
2019-03-09T11:52:22.275Z,22.97
2019-03-09T11:53:12.408Z,23.55
2019-03-09T11:54:12.402Z,23.65
2019-03-09T11:55:12.367Z,23.46
2019-03-09T11:56:12.350Z,23.46
2019-03-09T11:57:12.326Z,23.46
2019-03-09T11:58:12.316Z,23.46
2019-03-09T11:59:12.300Z,23.16
2019-03-09T12:00:12.269Z,23.26
2019-03-09T12:01:12.239Z,23.26
2019-03-09T12:02:12.227Z,23.26
2019-03-09T12:03:12.214Z,23.46
2019-03-09T12:04:12.182Z,23.26
2019-03-09T12:05:12.158Z,23.26
2019-03-09T12:06:12.135Z,23.26
2019-03-09T12:07:12.127Z,23.16
2019-03-09T12:08:12.096Z,23.16
2019-03-09T12:09:12.082Z,23.16
2019-03-09T12:10:12.060Z,23.16
2019-03-09T12:11:12.038Z,23.46
2019-03-09T12:12:12.014Z,22.97
2019-03-09T12:13:11.996Z,23.07
2019-03-09T12:14:11.978Z,23.07
2019-03-09T12:15:11.944Z,23.26
2019-03-09T12:16:11.950Z,23.26
2019-03-09T12:17:15.134Z,23.16
2019-03-09T12:18:11.886Z,23.26
2019-03-09T12:19:11.859Z,23.07
2019-03-09T12:20:11.844Z,23.16
2019-03-09T12:21:11.827Z,23.46
2019-03-09T12:22:11.805Z,23.46
2019-03-09T12:23:11.777Z,23.16
2019-03-09T12:24:20.081Z,23.26
2019-03-09T12:25:11.734Z,23.26
2019-03-09T12:26:11.742Z,23.16
2019-03-09T12:27:11.690Z,23.26
2019-03-09T12:28:11.672Z,23.16
2019-03-09T12:29:11.663Z,23.07
2019-03-09T12:30:11.658Z,22.97
2019-03-09T12:31:11.617Z,22.88
2019-03-09T12:32:11.605Z,22.88
2019-03-09T12:33:11.573Z,22.68
2019-03-09T12:34:11.555Z,22.58
2019-03-09T12:35:11.549Z,22.58
2019-03-09T12:36:11.523Z,22.49
2019-03-09T12:37:11.506Z,22.78
2019-03-09T12:38:11.477Z,22.68
2019-03-09T12:39:11.449Z,22.68
2019-03-09T12:40:11.422Z,22.78
2019-03-09T12:41:11.458Z,22.58
2019-03-09T12:42:11.372Z,22.49
2019-03-09T12:43:11.364Z,22.58
2019-03-09T12:44:11.335Z,22.58
2019-03-09T12:45:11.332Z,22.69
2019-03-09T12:46:11.290Z,22.58
2019-03-09T12:47:11.271Z,22.78
2019-03-09T12:48:11.254Z,22.78
2019-03-09T12:49:11.237Z,22.78
2019-03-09T12:50:11.209Z,22.79
2019-03-09T12:51:11.184Z,22.78
2019-03-09T12:52:11.172Z,22.68
2019-03-09T12:53:11.151Z,22.68